Estación Meteorológica Peña el Pijo (Robertgarden) [ 12/17/17 01:38:12 CET ]

Fecha Hora Presion(HPa) Temp (°C) Humedad % Rocio (°C) Viento ( m/s) Direccion Lluvia 1Hora(mm) Lluvia 24H(mm) LLuvia Total(mm)
2017-Dec-13 01:01:45 1012.200 -2.4 72 -6.8         16.57
2017-Dec-13 02:07:09 1012.800 -3.0 73 -7.2         16.57
2017-Dec-13 03:01:45 1013.300 -3.4 74 -7.4         16.57
2017-Dec-13 04:05:13 1013.600 -3.6 75 -7.4         16.57
2017-Dec-13 05:02:05 1013.100 -4.1 75 -7.9         16.57
2017-Dec-13 06:02:01 1013.200 -4.1 76 -7.7         16.57
2017-Dec-13 07:01:51 1013.800 -4.1 76 -7.7         16.57
2017-Dec-13 08:01:42 1014.300 -4.2 76 -7.8         16.57
2017-Dec-13 09:01:41 1015.000 -4.1 76 -7.7         16.57
2017-Dec-13 10:01:59 1015.000 1.3 72 -3.2         16.57
2017-Dec-13 11:01:53 1015.200 7.6 51 -1.9         16.57
2017-Dec-13 12:01:40 1014.600 10.6 35 -4.4         16.57
2017-Dec-13 13:01:54 1014.300 11.3 31 -5.2         16.57
2017-Dec-13 14:01:50 1013.700 12.2 29 -5.4         16.57
2017-Dec-13 15:01:36 1014.000 12.1 30 -4.9         16.57
2017-Dec-13 16:01:57 1013.500 10.8 31 -5.7 0.1 WNW     16.57
2017-Dec-13 17:01:45 1013.500 8.8 35 -5.9 0.6 WNW     16.57
2017-Dec-13 18:01:41 1013.800 7.2 40 -5.5         16.57
2017-Dec-13 19:01:42 1014.500 4.5 46 -6.2         16.57
2017-Dec-13 20:01:35 1014.300 3.3 50 -6.1         16.57
2017-Dec-13 21:01:42 1014.100 3.0 52 -5.9 0.9 NNW     16.57
2017-Dec-13 22:01:41 1014.100 4.2 51 -5.1         16.57
2017-Dec-13 23:02:04 1014.100 4.7 55 -3.6         16.57

Temperatura Máxima:12°    Temperatura Mínima:-4°
Presión Máxima:1015.200 Hpa    Presión Mínima:1012.200 Hpa


Volver